Livermore, CA

11:26 AM PDT on July 27, 2016 (GMT -0700)
San Vincente - | | Change Station

Elev 541 ft 37.66 °N, 121.76 °W | Updated 48 seconds ago

Clear
Clear
90.7 °F
Feels Like 89 °F
N
0.9
Wind Variable Wind from WSW
Gusts 3.0 mph

Today
High -- | Low -- °F
--% Chance of Precip.
Yesterday
High -- | Low -- °F
Precip. -- in
Pressure 29.87 in
Visibility 10.0 miles
Clouds Clear
Heat Index 89 °F
Dew Point 54 °F
Humidity 29%
Rainfall 0.00 in
Snow Depth Not available.
6:07 AM 8:19 PM
Last Quarter, 41% visible
METAR KLVK 271753Z 30004KT 10SM CLR 32/08 A2988 RMK AO2 SLP113 T03220083 10322 20183 58001
Pressure 29.87 in
Visibility 10.0 miles
Clouds Clear
Heat Index 89 °F
Dew Point 54 °F
Humidity 29%
Rainfall 0.00 in
Snow Depth Not available.
6:07 AM 8:19 PM
Last Quarter, 41% visible
METAR KLVK 271753Z 30004KT 10SM CLR 32/08 A2988 RMK AO2 SLP113 T03220083 10322 20183 58001

10-Day Weather Forecast

Almanac

Astronomy

Jul. 27, 2016 Rise Set
Actual Time
Civil Twilight
Nautical Twilight
Astronomical Twilight
Moon
Length of Visible Light
Length of Day
Tomorrow will be .
, % of the Moon is Illuminated

Today's Extremes

State Highs State Lows

Community

WunderPhotos

Upload Photos

1,927,894 photos uploaded!

WunderBlog® & News

Nearby

Air Quality

  Air Quality AQ Index Pollutant
Not available.

Snow Depth

Station Depth Elevation

Earthquake Activity

City Distance Mag. Time & Date
Minimum magnitude displayed is 2.5.

Coastal Water Temperatures

Place Temperature

Stations

Nearby Weather Stations

Station Location Temp. Windchill Dew Point Humidity Wind Precip. Elev Updated Type
                   

Watches & Warnings

There are currently no watches in effect.